sensor_id;sensor_type;location;lat;lon;timestamp;temperature;humidity
3023;DHT22;1521;53.584;9.938;2022-09-09T00:03:44;14.60;99.90
3023;DHT22;1521;53.584;9.938;2022-09-09T00:11:47;14.60;99.90
3023;DHT22;1521;53.584;9.938;2022-09-09T00:14:26;14.60;99.90
3023;DHT22;1521;53.584;9.938;2022-09-09T00:17:02;14.60;99.90
3023;DHT22;1521;53.584;9.938;2022-09-09T00:19:44;14.60;99.90
3023;DHT22;1521;53.584;9.938;2022-09-09T00:22:23;14.60;99.90
3023;DHT22;1521;53.584;9.938;2022-09-09T00:24:53;14.50;99.90
3023;DHT22;1521;53.584;9.938;2022-09-09T00:27:26;14.50;99.90
3023;DHT22;1521;53.584;9.938;2022-09-09T00:32:46;14.50;99.90
3023;DHT22;1521;53.584;9.938;2022-09-09T00:35:25;14.40;99.90
3023;DHT22;1521;53.584;9.938;2022-09-09T00:37:54;14.40;99.90
3023;DHT22;1521;53.584;9.938;2022-09-09T00:40:37;14.40;99.90
3023;DHT22;1521;53.584;9.938;2022-09-09T00:43:21;14.40;99.90
3023;DHT22;1521;53.584;9.938;2022-09-09T00:49:05;14.40;99.90
3023;DHT22;1521;53.584;9.938;2022-09-09T00:51:57;14.30;99.90
3023;DHT22;1521;53.584;9.938;2022-09-09T01:00:22;14.30;99.90
3023;DHT22;1521;53.584;9.938;2022-09-09T01:02:56;14.30;99.90
3023;DHT22;1521;53.584;9.938;2022-09-09T01:11:21;14.30;99.90
3023;DHT22;1521;53.584;9.938;2022-09-09T01:13:56;14.30;99.90
3023;DHT22;1521;53.584;9.938;2022-09-09T01:16:25;14.30;99.90
3023;DHT22;1521;53.584;9.938;2022-09-09T01:18:53;14.40;99.90
3023;DHT22;1521;53.584;9.938;2022-09-09T01:21:37;14.40;99.90
3023;DHT22;1521;53.584;9.938;2022-09-09T01:26:46;14.20;99.90
3023;DHT22;1521;53.584;9.938;2022-09-09T01:29:15;14.20;99.90
3023;DHT22;1521;53.584;9.938;2022-09-09T01:34:14;14.10;99.90
3023;DHT22;1521;53.584;9.938;2022-09-09T01:36:50;14.10;99.90
3023;DHT22;1521;53.584;9.938;2022-09-09T01:39:17;14.10;99.90
3023;DHT22;1521;53.584;9.938;2022-09-09T01:41:43;14.00;99.90
3023;DHT22;1521;53.584;9.938;2022-09-09T01:44:09;14.00;99.90
3023;DHT22;1521;53.584;9.938;2022-09-09T01:46:35;13.90;99.90
3023;DHT22;1521;53.584;9.938;2022-09-09T01:49:02;13.90;99.90
3023;DHT22;1521;53.584;9.938;2022-09-09T01:51:29;13.90;99.90
3023;DHT22;1521;53.584;9.938;2022-09-09T01:53:55;13.90;99.90
3023;DHT22;1521;53.584;9.938;2022-09-09T01:56:28;13.90;99.90
3023;DHT22;1521;53.584;9.938;2022-09-09T02:04:50;13.90;99.90
3023;DHT22;1521;53.584;9.938;2022-09-09T02:12:32;14.00;99.90
3023;DHT22;1521;53.584;9.938;2022-09-09T02:15:11;14.00;99.90
3023;DHT22;1521;53.584;9.938;2022-09-09T02:17:40;14.00;99.90
3023;DHT22;1521;53.584;9.938;2022-09-09T02:20:10;14.00;99.90
3023;DHT22;1521;53.584;9.938;2022-09-09T02:22:39;14.00;99.90
3023;DHT22;1521;53.584;9.938;2022-09-09T02:25:08;14.00;99.90
3023;DHT22;1521;53.584;9.938;2022-09-09T02:27:35;13.90;99.90
3023;DHT22;1521;53.584;9.938;2022-09-09T02:30:03;13.90;99.90
3023;DHT22;1521;53.584;9.938;2022-09-09T02:32:31;13.80;99.90
3023;DHT22;1521;53.584;9.938;2022-09-09T02:35:02;13.90;99.90
3023;DHT22;1521;53.584;9.938;2022-09-09T02:37:37;13.80;99.90
3023;DHT22;1521;53.584;9.938;2022-09-09T02:40:04;13.80;99.90
3023;DHT22;1521;53.584;9.938;2022-09-09T02:42:31;13.80;99.90
3023;DHT22;1521;53.584;9.938;2022-09-09T02:44:57;13.80;99.90
3023;DHT22;1521;53.584;9.938;2022-09-09T02:48:06;13.80;99.90
3023;DHT22;1521;53.584;9.938;2022-09-09T02:56:00;13.70;99.90
3023;DHT22;1521;53.584;9.938;2022-09-09T02:58:29;13.70;99.90
3023;DHT22;1521;53.584;9.938;2022-09-09T03:00:56;13.60;99.90
3023;DHT22;1521;53.584;9.938;2022-09-09T03:03:23;13.60;99.90
3023;DHT22;1521;53.584;9.938;2022-09-09T03:05:49;13.50;99.90
3023;DHT22;1521;53.584;9.938;2022-09-09T03:08:15;13.50;99.90
3023;DHT22;1521;53.584;9.938;2022-09-09T03:10:41;13.50;99.90
3023;DHT22;1521;53.584;9.938;2022-09-09T03:13:07;13.40;99.90
3023;DHT22;1521;53.584;9.938;2022-09-09T03:15:33;13.40;99.90
3023;DHT22;1521;53.584;9.938;2022-09-09T03:18:00;13.40;99.90
3023;DHT22;1521;53.584;9.938;2022-09-09T03:20:28;13.30;99.90
3023;DHT22;1521;53.584;9.938;2022-09-09T03:22:54;13.30;99.90
3023;DHT22;1521;53.584;9.938;2022-09-09T03:25:21;13.30;99.90
3023;DHT22;1521;53.584;9.938;2022-09-09T03:27:49;13.20;99.90
3023;DHT22;1521;53.584;9.938;2022-09-09T03:30:15;13.20;99.90
3023;DHT22;1521;53.584;9.938;2022-09-09T03:32:41;13.20;99.90
3023;DHT22;1521;53.584;9.938;2022-09-09T03:35:06;13.20;99.90
3023;DHT22;1521;53.584;9.938;2022-09-09T03:37:32;13.10;99.90
3023;DHT22;1521;53.584;9.938;2022-09-09T03:39:58;13.10;99.90
3023;DHT22;1521;53.584;9.938;2022-09-09T03:42:25;13.00;99.90
3023;DHT22;1521;53.584;9.938;2022-09-09T03:44:51;13.10;99.90
3023;DHT22;1521;53.584;9.938;2022-09-09T03:47:20;13.00;99.90
3023;DHT22;1521;53.584;9.938;2022-09-09T03:49:49;13.00;99.90
3023;DHT22;1521;53.584;9.938;2022-09-09T03:52:15;13.00;99.90
3023;DHT22;1521;53.584;9.938;2022-09-09T03:54:41;13.00;99.90
3023;DHT22;1521;53.584;9.938;2022-09-09T03:57:08;13.00;99.90
3023;DHT22;1521;53.584;9.938;2022-09-09T03:59:34;12.90;99.90
3023;DHT22;1521;53.584;9.938;2022-09-09T04:02:00;12.90;99.90
3023;DHT22;1521;53.584;9.938;2022-09-09T04:04:26;12.90;99.90
3023;DHT22;1521;53.584;9.938;2022-09-09T04:06:53;13.00;99.90
3023;DHT22;1521;53.584;9.938;2022-09-09T04:09:19;13.00;99.90
3023;DHT22;1521;53.584;9.938;2022-09-09T04:11:44;12.90;99.90
3023;DHT22;1521;53.584;9.938;2022-09-09T04:14:11;12.90;99.90
3023;DHT22;1521;53.584;9.938;2022-09-09T04:16:38;12.90;99.90
3023;DHT22;1521;53.584;9.938;2022-09-09T04:19:04;12.80;99.90
3023;DHT22;1521;53.584;9.938;2022-09-09T04:21:30;12.80;99.90
3023;DHT22;1521;53.584;9.938;2022-09-09T04:23:56;12.80;99.90
3023;DHT22;1521;53.584;9.938;2022-09-09T04:26:22;12.80;99.90
3023;DHT22;1521;53.584;9.938;2022-09-09T04:28:47;12.80;99.90
3023;DHT22;1521;53.584;9.938;2022-09-09T04:31:19;12.80;99.90
3023;DHT22;1521;53.584;9.938;2022-09-09T04:33:46;12.80;99.90
3023;DHT22;1521;53.584;9.938;2022-09-09T04:36:12;12.80;99.90
3023;DHT22;1521;53.584;9.938;2022-09-09T04:38:38;12.80;99.90
3023;DHT22;1521;53.584;9.938;2022-09-09T04:41:04;12.80;99.90
3023;DHT22;1521;53.584;9.938;2022-09-09T04:43:30;12.80;99.90
3023;DHT22;1521;53.584;9.938;2022-09-09T04:45:56;12.80;99.90
3023;DHT22;1521;53.584;9.938;2022-09-09T04:48:22;12.90;99.90
3023;DHT22;1521;53.584;9.938;2022-09-09T04:50:57;12.90;99.90
3023;DHT22;1521;53.584;9.938;2022-09-09T04:53:23;12.90;99.90
3023;DHT22;1521;53.584;9.938;2022-09-09T04:55:51;12.90;99.90
3023;DHT22;1521;53.584;9.938;2022-09-09T04:58:16;13.00;99.90
3023;DHT22;1521;53.584;9.938;2022-09-09T05:00:42;13.00;99.90
3023;DHT22;1521;53.584;9.938;2022-09-09T05:03:08;13.00;99.90
3023;DHT22;1521;53.584;9.938;2022-09-09T05:05:34;13.10;99.90
3023;DHT22;1521;53.584;9.938;2022-09-09T05:08:04;13.10;99.90
3023;DHT22;1521;53.584;9.938;2022-09-09T05:10:31;13.10;99.90
3023;DHT22;1521;53.584;9.938;2022-09-09T05:12:57;13.10;99.90
3023;DHT22;1521;53.584;9.938;2022-09-09T05:15:22;13.10;99.90
3023;DHT22;1521;53.584;9.938;2022-09-09T05:17:48;13.10;99.90
3023;DHT22;1521;53.584;9.938;2022-09-09T05:20:14;13.10;99.90
3023;DHT22;1521;53.584;9.938;2022-09-09T05:22:39;13.10;99.90
3023;DHT22;1521;53.584;9.938;2022-09-09T05:25:06;13.10;99.90
3023;DHT22;1521;53.584;9.938;2022-09-09T05:27:33;13.10;99.90
3023;DHT22;1521;53.584;9.938;2022-09-09T05:29:59;13.10;99.90
3023;DHT22;1521;53.584;9.938;2022-09-09T05:32:25;13.10;99.90
3023;DHT22;1521;53.584;9.938;2022-09-09T05:34:51;13.20;99.90
3023;DHT22;1521;53.584;9.938;2022-09-09T05:37:17;13.20;99.90
3023;DHT22;1521;53.584;9.938;2022-09-09T05:39:43;13.20;99.90
3023;DHT22;1521;53.584;9.938;2022-09-09T05:42:09;13.30;99.90
3023;DHT22;1521;53.584;9.938;2022-09-09T05:44:35;13.30;99.90
3023;DHT22;1521;53.584;9.938;2022-09-09T05:47:00;13.40;99.90
3023;DHT22;1521;53.584;9.938;2022-09-09T05:49:26;13.50;99.90
3023;DHT22;1521;53.584;9.938;2022-09-09T05:51:52;13.50;99.90
3023;DHT22;1521;53.584;9.938;2022-09-09T05:54:18;13.60;99.90
3023;DHT22;1521;53.584;9.938;2022-09-09T05:56:44;13.70;99.90
3023;DHT22;1521;53.584;9.938;2022-09-09T05:59:10;13.80;99.90
3023;DHT22;1521;53.584;9.938;2022-09-09T06:01:37;14.00;99.90
3023;DHT22;1521;53.584;9.938;2022-09-09T06:04:06;14.10;99.90
3023;DHT22;1521;53.584;9.938;2022-09-09T06:06:34;14.30;99.90
3023;DHT22;1521;53.584;9.938;2022-09-09T06:09:05;14.40;99.90
3023;DHT22;1521;53.584;9.938;2022-09-09T06:11:37;14.50;99.90
3023;DHT22;1521;53.584;9.938;2022-09-09T06:14:04;14.60;99.90
3023;DHT22;1521;53.584;9.938;2022-09-09T06:16:30;14.60;99.90
3023;DHT22;1521;53.584;9.938;2022-09-09T06:18:58;14.60;99.90
3023;DHT22;1521;53.584;9.938;2022-09-09T06:21:31;14.60;99.90
3023;DHT22;1521;53.584;9.938;2022-09-09T06:23:58;14.70;99.90
3023;DHT22;1521;53.584;9.938;2022-09-09T06:26:35;14.70;99.90
3023;DHT22;1521;53.584;9.938;2022-09-09T06:29:02;14.70;99.90
3023;DHT22;1521;53.584;9.938;2022-09-09T06:31:30;14.70;99.90
3023;DHT22;1521;53.584;9.938;2022-09-09T06:33:57;14.60;99.90
3023;DHT22;1521;53.584;9.938;2022-09-09T06:36:29;14.70;99.90
3023;DHT22;1521;53.584;9.938;2022-09-09T06:38:55;14.70;99.90
3023;DHT22;1521;53.584;9.938;2022-09-09T06:41:23;14.80;99.90
3023;DHT22;1521;53.584;9.938;2022-09-09T06:43:49;14.90;99.90
3023;DHT22;1521;53.584;9.938;2022-09-09T06:48:42;15.20;99.90
3023;DHT22;1521;53.584;9.938;2022-09-09T06:51:12;15.30;99.90
3023;DHT22;1521;53.584;9.938;2022-09-09T06:53:39;15.40;99.90
3023;DHT22;1521;53.584;9.938;2022-09-09T06:58:52;15.60;99.90
3023;DHT22;1521;53.584;9.938;2022-09-09T07:01:20;15.80;99.90
3023;DHT22;1521;53.584;9.938;2022-09-09T07:03:48;16.00;99.90
3023;DHT22;1521;53.584;9.938;2022-09-09T07:06:17;16.30;99.90
3023;DHT22;1521;53.584;9.938;2022-09-09T07:08:43;16.40;99.90
3023;DHT22;1521;53.584;9.938;2022-09-09T07:11:09;16.70;99.90
3023;DHT22;1521;53.584;9.938;2022-09-09T07:13:36;17.20;99.90
3023;DHT22;1521;53.584;9.938;2022-09-09T07:16:08;17.70;99.90
3023;DHT22;1521;53.584;9.938;2022-09-09T07:18:34;18.10;99.90
3023;DHT22;1521;53.584;9.938;2022-09-09T07:21:00;18.10;1.00
3023;DHT22;1521;53.584;9.938;2022-09-09T07:23:27;18.10;99.90
3023;DHT22;1521;53.584;9.938;2022-09-09T07:25:53;17.90;1.00
3023;DHT22;1521;53.584;9.938;2022-09-09T07:28:20;17.60;99.90
3023;DHT22;1521;53.584;9.938;2022-09-09T07:30:56;17.60;1.00
3023;DHT22;1521;53.584;9.938;2022-09-09T07:33:23;17.30;1.00
3023;DHT22;1521;53.584;9.938;2022-09-09T07:35:49;17.40;99.90
3023;DHT22;1521;53.584;9.938;2022-09-09T07:38:15;17.70;1.00
3023;DHT22;1521;53.584;9.938;2022-09-09T07:40:41;18.20;99.90
3023;DHT22;1521;53.584;9.938;2022-09-09T07:43:07;19.00;1.00
3023;DHT22;1521;53.584;9.938;2022-09-09T07:45:34;19.50;1.00
3023;DHT22;1521;53.584;9.938;2022-09-09T07:48:01;19.30;1.00
3023;DHT22;1521;53.584;9.938;2022-09-09T07:50:27;19.00;99.90
3023;DHT22;1521;53.584;9.938;2022-09-09T07:52:53;18.60;1.00
3023;DHT22;1521;53.584;9.938;2022-09-09T07:55:20;18.30;1.00
3023;DHT22;1521;53.584;9.938;2022-09-09T07:57:45;17.90;1.00
3023;DHT22;1521;53.584;9.938;2022-09-09T08:00:13;17.60;99.90
3023;DHT22;1521;53.584;9.938;2022-09-09T08:02:40;17.50;99.90
3023;DHT22;1521;53.584;9.938;2022-09-09T08:05:06;17.50;82.70
3023;DHT22;1521;53.584;9.938;2022-09-09T08:07:32;17.80;1.00
3023;DHT22;1521;53.584;9.938;2022-09-09T08:09:57;18.20;99.90
3023;DHT22;1521;53.584;9.938;2022-09-09T08:12:23;18.60;1.00
3023;DHT22;1521;53.584;9.938;2022-09-09T08:14:49;19.10;99.90
3023;DHT22;1521;53.584;9.938;2022-09-09T08:17:14;19.20;99.90
3023;DHT22;1521;53.584;9.938;2022-09-09T08:19:40;19.10;99.90
3023;DHT22;1521;53.584;9.938;2022-09-09T08:22:06;19.10;1.00
3023;DHT22;1521;53.584;9.938;2022-09-09T08:24:33;19.20;99.90
3023;DHT22;1521;53.584;9.938;2022-09-09T08:26:58;19.30;99.90
3023;DHT22;1521;53.584;9.938;2022-09-09T08:29:24;19.30;25.60
3023;DHT22;1521;53.584;9.938;2022-09-09T08:31:52;19.40;1.00
3023;DHT22;1521;53.584;9.938;2022-09-09T08:34:20;19.50;3.80
3023;DHT22;1521;53.584;9.938;2022-09-09T08:36:47;19.50;1.00
3023;DHT22;1521;53.584;9.938;2022-09-09T08:39:18;19.60;99.90
3023;DHT22;1521;53.584;9.938;2022-09-09T08:52:39;19.10;35.70
3023;DHT22;1521;53.584;9.938;2022-09-09T08:57:36;19.10;1.00
3023;DHT22;1521;53.584;9.938;2022-09-09T09:00:02;19.00;91.90
3023;DHT22;1521;53.584;9.938;2022-09-09T09:12:55;19.50;99.90
3023;DHT22;1521;53.584;9.938;2022-09-09T09:15:24;20.20;1.00
3023;DHT22;1521;53.584;9.938;2022-09-09T09:17:50;21.10;1.00
3023;DHT22;1521;53.584;9.938;2022-09-09T09:20:18;21.90;1.00
3023;DHT22;1521;53.584;9.938;2022-09-09T09:22:49;22.40;1.00
3023;DHT22;1521;53.584;9.938;2022-09-09T09:25:19;22.50;1.00
3023;DHT22;1521;53.584;9.938;2022-09-09T09:30:48;21.80;1.00
3023;DHT22;1521;53.584;9.938;2022-09-09T09:33:24;21.40;1.00
3023;DHT22;1521;53.584;9.938;2022-09-09T09:35:52;21.20;1.00
3023;DHT22;1521;53.584;9.938;2022-09-09T09:38:26;21.00;1.00
3023;DHT22;1521;53.584;9.938;2022-09-09T09:40:55;20.80;1.00
3023;DHT22;1521;53.584;9.938;2022-09-09T09:43:31;20.70;1.00
3023;DHT22;1521;53.584;9.938;2022-09-09T09:45:58;20.50;1.00
3023;DHT22;1521;53.584;9.938;2022-09-09T09:48:25;20.40;1.00
3023;DHT22;1521;53.584;9.938;2022-09-09T09:50:56;20.30;1.00
3023;DHT22;1521;53.584;9.938;2022-09-09T09:53:30;20.30;1.00
3023;DHT22;1521;53.584;9.938;2022-09-09T09:56:11;20.40;1.00
3023;DHT22;1521;53.584;9.938;2022-09-09T10:01:22;21.00;1.00
3023;DHT22;1521;53.584;9.938;2022-09-09T10:04:01;21.30;1.00
3023;DHT22;1521;53.584;9.938;2022-09-09T10:06:36;21.50;1.00
3023;DHT22;1521;53.584;9.938;2022-09-09T10:09:29;21.70;1.00
3023;DHT22;1521;53.584;9.938;2022-09-09T10:15:02;22.00;1.00
3023;DHT22;1521;53.584;9.938;2022-09-09T10:36:45;22.60;1.00
3023;DHT22;1521;53.584;9.938;2022-09-09T10:39:35;23.00;1.00
3023;DHT22;1521;53.584;9.938;2022-09-09T10:42:07;23.70;1.00
3023;DHT22;1521;53.584;9.938;2022-09-09T10:45:02;24.30;1.00
3023;DHT22;1521;53.584;9.938;2022-09-09T10:53:28;26.00;1.00
3023;DHT22;1521;53.584;9.938;2022-09-09T10:56:03;26.50;1.00
3023;DHT22;1521;53.584;9.938;2022-09-09T11:01:20;25.10;99.90
3023;DHT22;1521;53.584;9.938;2022-09-09T11:03:54;25.20;1.00
3023;DHT22;1521;53.584;9.938;2022-09-09T11:06:25;26.10;1.00
3023;DHT22;1521;53.584;9.938;2022-09-09T11:08:53;26.40;1.00
3023;DHT22;1521;53.584;9.938;2022-09-09T11:11:26;26.50;99.90
3023;DHT22;1521;53.584;9.938;2022-09-09T11:14:00;26.60;99.90
3023;DHT22;1521;53.584;9.938;2022-09-09T11:16:52;26.10;99.90
3023;DHT22;1521;53.584;9.938;2022-09-09T11:19:26;25.10;99.90
3023;DHT22;1521;53.584;9.938;2022-09-09T11:21:53;24.20;99.90
3023;DHT22;1521;53.584;9.938;2022-09-09T11:24:28;23.60;99.90
3023;DHT22;1521;53.584;9.938;2022-09-09T11:26:59;23.50;1.00
3023;DHT22;1521;53.584;9.938;2022-09-09T11:30:15;23.50;1.00
3023;DHT22;1521;53.584;9.938;2022-09-09T11:33:18;23.60;1.00
3023;DHT22;1521;53.584;9.938;2022-09-09T11:35:52;23.80;1.00
3023;DHT22;1521;53.584;9.938;2022-09-09T11:38:27;24.10;1.00
3023;DHT22;1521;53.584;9.938;2022-09-09T11:41:01;25.10;99.90
3023;DHT22;1521;53.584;9.938;2022-09-09T11:43:31;25.70;99.90
3023;DHT22;1521;53.584;9.938;2022-09-09T11:46:00;25.70;99.90
3023;DHT22;1521;53.584;9.938;2022-09-09T11:51:28;25.90;99.90
3023;DHT22;1521;53.584;9.938;2022-09-09T11:54:00;27.10;99.90
3023;DHT22;1521;53.584;9.938;2022-09-09T11:56:31;27.30;99.90
3023;DHT22;1521;53.584;9.938;2022-09-09T12:01:35;26.10;99.90
3023;DHT22;1521;53.584;9.938;2022-09-09T12:11:50;23.80;99.90
3023;DHT22;1521;53.584;9.938;2022-09-09T12:14:37;24.40;99.90
3023;DHT22;1521;53.584;9.938;2022-09-09T12:17:16;24.90;99.90
3023;DHT22;1521;53.584;9.938;2022-09-09T12:19:43;24.70;99.90
3023;DHT22;1521;53.584;9.938;2022-09-09T12:25:25;23.60;99.90
3023;DHT22;1521;53.584;9.938;2022-09-09T12:28:11;23.00;99.90
3023;DHT22;1521;53.584;9.938;2022-09-09T12:31:05;22.70;99.90
3023;DHT22;1521;53.584;9.938;2022-09-09T12:33:44;22.30;99.90
3023;DHT22;1521;53.584;9.938;2022-09-09T12:36:19;22.10;99.90
3023;DHT22;1521;53.584;9.938;2022-09-09T12:38:46;21.90;1.00
3023;DHT22;1521;53.584;9.938;2022-09-09T12:41:26;21.70;1.00
3023;DHT22;1521;53.584;9.938;2022-09-09T12:44:04;21.60;1.00
3023;DHT22;1521;53.584;9.938;2022-09-09T12:46:49;21.60;1.00
3023;DHT22;1521;53.584;9.938;2022-09-09T12:49:37;21.40;1.00
3023;DHT22;1521;53.584;9.938;2022-09-09T12:52:08;21.30;1.00
3023;DHT22;1521;53.584;9.938;2022-09-09T12:54:44;21.20;1.00
3023;DHT22;1521;53.584;9.938;2022-09-09T12:57:12;21.00;1.00
3023;DHT22;1521;53.584;9.938;2022-09-09T12:59:41;20.80;1.00
3023;DHT22;1521;53.584;9.938;2022-09-09T13:02:23;20.70;1.00
3023;DHT22;1521;53.584;9.938;2022-09-09T13:04:50;20.50;1.00
3023;DHT22;1521;53.584;9.938;2022-09-09T13:07:18;20.40;1.00
3023;DHT22;1521;53.584;9.938;2022-09-09T13:09:44;20.20;1.00
3023;DHT22;1521;53.584;9.938;2022-09-09T13:12:16;20.10;1.00
3023;DHT22;1521;53.584;9.938;2022-09-09T13:14:45;20.00;1.00
3023;DHT22;1521;53.584;9.938;2022-09-09T13:17:19;19.90;1.00
3023;DHT22;1521;53.584;9.938;2022-09-09T13:19:46;19.80;1.00
3023;DHT22;1521;53.584;9.938;2022-09-09T13:27:38;19.60;1.00
3023;DHT22;1521;53.584;9.938;2022-09-09T13:35:32;18.90;1.00
3023;DHT22;1521;53.584;9.938;2022-09-09T13:38:06;18.50;99.90
3023;DHT22;1521;53.584;9.938;2022-09-09T13:40:32;18.00;33.60
3023;DHT22;1521;53.584;9.938;2022-09-09T13:42:58;17.60;99.90
3023;DHT22;1521;53.584;9.938;2022-09-09T13:45:26;17.30;99.90
3023;DHT22;1521;53.584;9.938;2022-09-09T13:47:53;17.10;1.00
3023;DHT22;1521;53.584;9.938;2022-09-09T13:50:27;16.90;99.90
3023;DHT22;1521;53.584;9.938;2022-09-09T13:52:55;16.80;99.90
3023;DHT22;1521;53.584;9.938;2022-09-09T13:55:24;16.80;60.40
3023;DHT22;1521;53.584;9.938;2022-09-09T13:57:58;16.80;99.90
3023;DHT22;1521;53.584;9.938;2022-09-09T14:00:26;16.80;1.00
3023;DHT22;1521;53.584;9.938;2022-09-09T14:02:52;16.90;99.90
3023;DHT22;1521;53.584;9.938;2022-09-09T14:05:18;16.90;96.90
3023;DHT22;1521;53.584;9.938;2022-09-09T14:07:45;16.90;45.80
3023;DHT22;1521;53.584;9.938;2022-09-09T14:10:11;16.90;99.90
3023;DHT22;1521;53.584;9.938;2022-09-09T14:12:37;16.90;1.00
3023;DHT22;1521;53.584;9.938;2022-09-09T14:15:04;16.90;99.90
3023;DHT22;1521;53.584;9.938;2022-09-09T14:17:30;16.90;99.90
3023;DHT22;1521;53.584;9.938;2022-09-09T14:19:57;16.90;1.00
3023;DHT22;1521;53.584;9.938;2022-09-09T14:22:23;16.90;1.00
3023;DHT22;1521;53.584;9.938;2022-09-09T14:24:49;16.90;92.50
3023;DHT22;1521;53.584;9.938;2022-09-09T14:27:16;17.00;99.90
3023;DHT22;1521;53.584;9.938;2022-09-09T14:29:42;17.00;99.90
3023;DHT22;1521;53.584;9.938;2022-09-09T14:32:09;17.10;99.90
3023;DHT22;1521;53.584;9.938;2022-09-09T14:34:35;17.10;99.90
3023;DHT22;1521;53.584;9.938;2022-09-09T14:37:01;17.10;99.90
3023;DHT22;1521;53.584;9.938;2022-09-09T14:39:27;17.00;99.90
3023;DHT22;1521;53.584;9.938;2022-09-09T14:41:52;17.00;99.90
3023;DHT22;1521;53.584;9.938;2022-09-09T14:44:18;17.00;99.90
3023;DHT22;1521;53.584;9.938;2022-09-09T14:46:44;17.00;99.90
3023;DHT22;1521;53.584;9.938;2022-09-09T14:49:09;17.00;99.90
3023;DHT22;1521;53.584;9.938;2022-09-09T14:51:38;16.90;99.90
3023;DHT22;1521;53.584;9.938;2022-09-09T14:54:04;16.90;99.90
3023;DHT22;1521;53.584;9.938;2022-09-09T14:56:32;16.80;99.90
3023;DHT22;1521;53.584;9.938;2022-09-09T14:59:00;16.90;99.90
3023;DHT22;1521;53.584;9.938;2022-09-09T15:01:27;16.80;99.90
3023;DHT22;1521;53.584;9.938;2022-09-09T15:03:58;16.80;99.90
3023;DHT22;1521;53.584;9.938;2022-09-09T15:06:25;16.90;99.90
3023;DHT22;1521;53.584;9.938;2022-09-09T15:08:52;16.90;1.00
3023;DHT22;1521;53.584;9.938;2022-09-09T15:11:19;16.90;1.00
3023;DHT22;1521;53.584;9.938;2022-09-09T15:13:45;16.90;99.90
3023;DHT22;1521;53.584;9.938;2022-09-09T15:16:14;16.90;99.90
3023;DHT22;1521;53.584;9.938;2022-09-09T15:18:41;16.80;99.90
3023;DHT22;1521;53.584;9.938;2022-09-09T15:21:14;16.80;99.90
3023;DHT22;1521;53.584;9.938;2022-09-09T15:23:41;16.80;99.90
3023;DHT22;1521;53.584;9.938;2022-09-09T15:26:07;16.80;99.90
3023;DHT22;1521;53.584;9.938;2022-09-09T15:28:35;16.80;99.90
3023;DHT22;1521;53.584;9.938;2022-09-09T15:31:12;16.80;99.90
3023;DHT22;1521;53.584;9.938;2022-09-09T15:33:40;16.80;99.90
3023;DHT22;1521;53.584;9.938;2022-09-09T15:36:23;16.90;99.90
3023;DHT22;1521;53.584;9.938;2022-09-09T15:38:49;17.00;99.90
3023;DHT22;1521;53.584;9.938;2022-09-09T15:41:17;17.00;99.90
3023;DHT22;1521;53.584;9.938;2022-09-09T15:43:48;17.10;99.90
3023;DHT22;1521;53.584;9.938;2022-09-09T15:48:50;17.20;99.90
3023;DHT22;1521;53.584;9.938;2022-09-09T15:51:16;17.30;99.90
3023;DHT22;1521;53.584;9.938;2022-09-09T15:53:41;17.40;99.90
3023;DHT22;1521;53.584;9.938;2022-09-09T15:56:07;17.40;99.90
3023;DHT22;1521;53.584;9.938;2022-09-09T15:58:34;17.40;99.90
3023;DHT22;1521;53.584;9.938;2022-09-09T16:01:08;17.50;99.90
3023;DHT22;1521;53.584;9.938;2022-09-09T16:03:35;17.60;99.90
3023;DHT22;1521;53.584;9.938;2022-09-09T16:06:01;17.70;99.90
3023;DHT22;1521;53.584;9.938;2022-09-09T16:08:39;17.90;99.90
3023;DHT22;1521;53.584;9.938;2022-09-09T16:11:13;18.00;99.90
3023;DHT22;1521;53.584;9.938;2022-09-09T16:13:41;18.10;99.90
3023;DHT22;1521;53.584;9.938;2022-09-09T16:16:08;18.10;30.70
3023;DHT22;1521;53.584;9.938;2022-09-09T16:18:36;18.10;1.00
3023;DHT22;1521;53.584;9.938;2022-09-09T16:21:03;18.00;99.90
3023;DHT22;1521;53.584;9.938;2022-09-09T16:23:31;18.00;99.90
3023;DHT22;1521;53.584;9.938;2022-09-09T16:25:57;17.90;99.90
3023;DHT22;1521;53.584;9.938;2022-09-09T16:28:23;17.90;99.90
3023;DHT22;1521;53.584;9.938;2022-09-09T16:30:49;17.80;99.90
3023;DHT22;1521;53.584;9.938;2022-09-09T16:33:15;17.90;99.90
3023;DHT22;1521;53.584;9.938;2022-09-09T16:35:41;17.80;99.90
3023;DHT22;1521;53.584;9.938;2022-09-09T16:38:07;17.70;99.90
3023;DHT22;1521;53.584;9.938;2022-09-09T16:40:38;17.70;99.90
3023;DHT22;1521;53.584;9.938;2022-09-09T16:43:07;17.60;99.90
3023;DHT22;1521;53.584;9.938;2022-09-09T16:45:32;17.50;99.90
3023;DHT22;1521;53.584;9.938;2022-09-09T16:47:59;17.50;99.90
3023;DHT22;1521;53.584;9.938;2022-09-09T16:50:26;17.50;1.00
3023;DHT22;1521;53.584;9.938;2022-09-09T16:52:52;17.40;1.00
3023;DHT22;1521;53.584;9.938;2022-09-09T16:55:18;17.40;1.00
3023;DHT22;1521;53.584;9.938;2022-09-09T16:57:46;17.30;1.00
3023;DHT22;1521;53.584;9.938;2022-09-09T17:00:14;17.20;1.00
3023;DHT22;1521;53.584;9.938;2022-09-09T17:02:43;17.10;1.00
3023;DHT22;1521;53.584;9.938;2022-09-09T17:05:10;17.00;1.00
3023;DHT22;1521;53.584;9.938;2022-09-09T17:07:37;16.90;1.00
3023;DHT22;1521;53.584;9.938;2022-09-09T17:10:04;16.80;1.00
3023;DHT22;1521;53.584;9.938;2022-09-09T17:12:31;16.70;1.00
3023;DHT22;1521;53.584;9.938;2022-09-09T17:14:57;16.60;1.00
3023;DHT22;1521;53.584;9.938;2022-09-09T17:17:24;16.50;1.00
3023;DHT22;1521;53.584;9.938;2022-09-09T17:19:50;16.50;1.00
3023;DHT22;1521;53.584;9.938;2022-09-09T17:22:15;16.40;1.00
3023;DHT22;1521;53.584;9.938;2022-09-09T17:24:41;16.30;1.00
3023;DHT22;1521;53.584;9.938;2022-09-09T17:27:07;16.20;3.60
3023;DHT22;1521;53.584;9.938;2022-09-09T17:29:32;16.10;25.30
3023;DHT22;1521;53.584;9.938;2022-09-09T17:32:01;16.00;40.60
3023;DHT22;1521;53.584;9.938;2022-09-09T17:34:27;15.90;77.00
3023;DHT22;1521;53.584;9.938;2022-09-09T17:36:53;15.90;99.90
3023;DHT22;1521;53.584;9.938;2022-09-09T17:39:19;15.80;99.90
3023;DHT22;1521;53.584;9.938;2022-09-09T17:41:44;15.70;99.90
3023;DHT22;1521;53.584;9.938;2022-09-09T17:44:10;15.60;99.90
3023;DHT22;1521;53.584;9.938;2022-09-09T17:46:38;15.60;99.90
3023;DHT22;1521;53.584;9.938;2022-09-09T17:49:07;15.50;99.90
3023;DHT22;1521;53.584;9.938;2022-09-09T17:51:34;15.50;99.90
3023;DHT22;1521;53.584;9.938;2022-09-09T17:54:03;15.40;99.90
3023;DHT22;1521;53.584;9.938;2022-09-09T17:56:31;15.30;99.90
3023;DHT22;1521;53.584;9.938;2022-09-09T17:58:58;15.30;99.90
3023;DHT22;1521;53.584;9.938;2022-09-09T18:01:25;15.20;99.90
3023;DHT22;1521;53.584;9.938;2022-09-09T18:03:56;15.20;99.90
3023;DHT22;1521;53.584;9.938;2022-09-09T18:06:24;15.20;99.90
3023;DHT22;1521;53.584;9.938;2022-09-09T18:08:54;15.10;99.90
3023;DHT22;1521;53.584;9.938;2022-09-09T18:11:22;15.10;99.90
3023;DHT22;1521;53.584;9.938;2022-09-09T18:13:49;15.00;99.90
3023;DHT22;1521;53.584;9.938;2022-09-09T18:16:16;15.00;99.90
3023;DHT22;1521;53.584;9.938;2022-09-09T18:18:44;14.90;99.90
3023;DHT22;1521;53.584;9.938;2022-09-09T18:21:10;14.90;99.90
3023;DHT22;1521;53.584;9.938;2022-09-09T18:23:37;14.90;99.90
3023;DHT22;1521;53.584;9.938;2022-09-09T18:26:08;14.90;1.00
3023;DHT22;1521;53.584;9.938;2022-09-09T18:28:38;14.80;1.00
3023;DHT22;1521;53.584;9.938;2022-09-09T18:31:09;14.80;1.00
3023;DHT22;1521;53.584;9.938;2022-09-09T18:33:40;14.80;1.00
3023;DHT22;1521;53.584;9.938;2022-09-09T18:36:11;14.80;1.00
3023;DHT22;1521;53.584;9.938;2022-09-09T18:38:37;14.80;1.00
3023;DHT22;1521;53.584;9.938;2022-09-09T18:41:21;14.80;1.00
3023;DHT22;1521;53.584;9.938;2022-09-09T18:43:49;14.90;1.00